Time;durP1;ratioP1;P1;durP2;ratioP2;P2;SDS_P1;SDS_P2;PMS_P1;PMS_P2;Temp;Humidity;BMP_temperature;BMP_pressure;BME280_temperature;BME280_humidity;BME280_pressure;Samples;Min_cycle;Max_cycle;Signal;HPM_P1;HPM_P2
2023/10/30 00:00:58;;;;;;;5.03;2.60;;;13.40;87.00;;;;;;4991460;28;20178;-75
2023/10/30 00:03:24;;;;;;;4.00;2.83;;;13.40;87.30;;;;;;4990633;28;20230;-75
2023/10/30 00:05:49;;;;;;;7.50;3.10;;;13.50;87.30;;;;;;4987484;28;20707;-75
2023/10/30 00:08:16;;;;;;;3.00;2.30;;;13.50;87.10;;;;;;4984901;28;20182;-74
2023/10/30 00:10:42;;;;;;;4.17;2.60;;;13.40;87.00;;;;;;4990280;28;20175;-74
2023/10/30 00:13:07;;;;;;;2.80;2.13;;;13.40;87.10;;;;;;4991026;28;20425;-76
2023/10/30 00:15:34;;;;;;;2.67;1.97;;;13.30;87.00;;;;;;4987548;28;20210;-74
2023/10/30 00:17:59;;;;;;;3.87;2.37;;;13.30;87.10;;;;;;4989783;28;20727;-76
2023/10/30 00:20:25;;;;;;;3.40;2.27;;;13.30;87.40;;;;;;4987555;28;20430;-75
2023/10/30 00:22:51;;;;;;;5.33;2.77;;;13.20;87.40;;;;;;4991278;28;20186;-76
2023/10/30 00:25:16;;;;;;;6.90;2.60;;;13.20;87.60;;;;;;4989514;28;20182;-77
2023/10/30 00:27:42;;;;;;;3.43;2.57;;;13.20;87.70;;;;;;4988887;28;20222;-75
2023/10/30 00:30:09;;;;;;;2.80;2.03;;;13.10;87.70;;;;;;4985515;28;20174;-75
2023/10/30 00:32:35;;;;;;;5.13;2.87;;;13.20;88.00;;;;;;4990256;28;20442;-75
2023/10/30 00:35:00;;;;;;;3.70;2.73;;;13.20;88.00;;;;;;4989549;28;20433;-75
2023/10/30 00:37:26;;;;;;;4.67;2.80;;;13.30;88.00;;;;;;4989881;28;20301;-75
2023/10/30 00:39:51;;;;;;;2.70;2.37;;;13.20;87.80;;;;;;4992821;28;20193;-76
2023/10/30 00:42:17;;;;;;;4.83;2.57;;;13.20;87.80;;;;;;4994295;28;20609;-74
2023/10/30 00:44:42;;;;;;;3.33;2.43;;;13.30;87.80;;;;;;4994248;28;20563;-74
2023/10/30 00:47:08;;;;;;;4.47;2.87;;;13.30;87.70;;;;;;4989740;28;20225;-73
2023/10/30 00:49:34;;;;;;;7.67;2.93;;;13.40;87.80;;;;;;4991530;28;20603;-73
2023/10/30 00:51:59;;;;;;;3.30;2.40;;;13.40;87.70;;;;;;4993295;28;20229;-74
2023/10/30 00:54:25;;;;;;;5.80;2.90;;;13.40;87.70;;;;;;4993136;28;20218;-74
2023/10/30 00:56:50;;;;;;;6.83;3.23;;;13.50;87.70;;;;;;4989653;28;20217;-73
2023/10/30 00:59:16;;;;;;;5.00;2.63;;;13.50;87.70;;;;;;4993059;28;20179;-73
2023/10/30 01:01:41;;;;;;;5.60;2.60;;;13.50;87.70;;;;;;4993193;28;20198;-74
2023/10/30 01:04:07;;;;;;;4.00;2.90;;;13.60;87.70;;;;;;4993387;28;20285;-75
2023/10/30 01:06:33;;;;;;;3.20;2.10;;;13.50;87.60;;;;;;4991306;28;20224;-72
2023/10/30 01:08:59;;;;;;;5.60;3.30;;;13.60;87.60;;;;;;4992908;28;20183;-74
2023/10/30 01:11:25;;;;;;;4.80;2.70;;;13.60;87.60;;;;;;4993074;28;20815;-73
2023/10/30 01:13:52;;;;;;;4.30;2.97;;;13.70;87.10;;;;;;4989452;28;20179;-75
2023/10/30 01:16:17;;;;;;;4.20;3.37;;;13.60;86.80;;;;;;4987698;28;20202;-74
2023/10/30 01:18:43;;;;;;;4.97;2.87;;;13.50;87.00;;;;;;4992014;28;20422;-74
2023/10/30 01:21:10;;;;;;;5.00;2.33;;;13.50;87.10;;;;;;4985314;28;20637;-74
2023/10/30 01:23:35;;;;;;;4.47;2.37;;;13.50;87.30;;;;;;4993868;28;20187;-73
2023/10/30 01:26:01;;;;;;;3.37;2.10;;;13.60;87.60;;;;;;4985550;28;20536;-74
2023/10/30 01:28:26;;;;;;;3.80;2.00;;;13.60;87.30;;;;;;4987157;28;20183;-75
2023/10/30 01:30:52;;;;;;;6.30;1.90;;;13.50;87.10;;;;;;4992927;28;20186;-73
2023/10/30 01:33:18;;;;;;;3.43;1.60;;;13.50;87.30;;;;;;4991985;28;20627;-74
2023/10/30 01:35:43;;;;;;;3.23;2.10;;;13.60;87.30;;;;;;4989167;28;20333;-74
2023/10/30 01:38:09;;;;;;;3.90;2.00;;;13.50;87.10;;;;;;4989009;28;20202;-74
2023/10/30 01:40:35;;;;;;;3.00;1.83;;;13.50;87.30;;;;;;4992756;28;20221;-73
2023/10/30 01:43:08;;;;;;;5.77;3.40;;;13.60;87.30;;;;;;4992958;28;20190;-74
2023/10/30 01:45:34;;;;;;;4.63;3.73;;;13.60;87.40;;;;;;4993644;28;20457;-74
2023/10/30 01:48:00;;;;;;;4.10;2.73;;;13.50;87.30;;;;;;4991741;28;20418;-74
2023/10/30 01:50:25;;;;;;;4.17;2.50;;;13.60;87.40;;;;;;4992788;28;20421;-75
2023/10/30 01:52:51;;;;;;;5.70;3.57;;;13.60;87.40;;;;;;4990587;28;20183;-72
2023/10/30 01:55:17;;;;;;;4.27;3.00;;;13.70;87.40;;;;;;4987617;28;20192;-73
2023/10/30 01:57:43;;;;;;;3.53;2.60;;;13.70;86.90;;;;;;4984384;28;20191;-72
2023/10/30 02:00:10;;;;;;;4.27;2.80;;;13.70;86.90;;;;;;4993021;28;20228;-74
2023/10/30 02:02:38;;;;;;;5.10;3.23;;;13.70;86.60;;;;;;4992277;28;20461;-74
2023/10/30 02:05:05;;;;;;;9.20;3.17;;;13.60;86.30;;;;;;4991485;28;20430;-75
2023/10/30 02:07:31;;;;;;;8.00;3.40;;;13.50;86.90;;;;;;4990130;28;20481;-74
2023/10/30 02:09:57;;;;;;;5.17;3.30;;;13.60;87.10;;;;;;4988648;28;20449;-75
2023/10/30 02:12:22;;;;;;;3.30;2.43;;;13.50;87.30;;;;;;4992019;28;20434;-75
2023/10/30 02:14:48;;;;;;;4.67;2.37;;;13.60;87.60;;;;;;4992448;28;20238;-73
2023/10/30 02:17:13;;;;;;;3.30;2.17;;;13.60;87.60;;;;;;4989211;28;20215;-73
2023/10/30 02:19:39;;;;;;;2.50;1.90;;;13.60;87.70;;;;;;4990667;28;20179;-73
2023/10/30 02:22:04;;;;;;;3.30;2.03;;;13.60;87.40;;;;;;4987984;28;20229;-73
2023/10/30 02:24:30;;;;;;;2.57;1.73;;;13.50;87.40;;;;;;4991289;28;20198;-74
2023/10/30 02:26:55;;;;;;;3.17;2.23;;;13.50;87.40;;;;;;4986390;28;20217;-74
2023/10/30 02:29:21;;;;;;;4.27;2.10;;;13.40;87.40;;;;;;4990832;28;20240;-74
2023/10/30 02:31:47;;;;;;;3.60;2.00;;;13.40;87.60;;;;;;4995208;28;20179;-73
2023/10/30 02:34:14;;;;;;;2.27;1.63;;;13.40;87.60;;;;;;4991202;28;20774;-73
2023/10/30 02:36:40;;;;;;;3.00;1.80;;;13.40;87.70;;;;;;4983888;28;20698;-74
2023/10/30 02:39:07;;;;;;;2.70;1.87;;;13.40;87.70;;;;;;4985222;28;20429;-72
2023/10/30 02:41:32;;;;;;;4.50;1.53;;;13.40;87.70;;;;;;4990682;28;20472;-73
2023/10/30 02:43:58;;;;;;;3.43;2.07;;;13.40;87.70;;;;;;4989186;28;20417;-75
2023/10/30 02:46:24;;;;;;;3.30;2.00;;;13.40;87.70;;;;;;4987347;28;20646;-74
2023/10/30 02:48:50;;;;;;;2.37;1.73;;;13.40;87.60;;;;;;4990009;28;20421;-75
2023/10/30 02:51:16;;;;;;;3.83;2.20;;;13.30;87.60;;;;;;4991044;28;20501;-75
2023/10/30 02:53:42;;;;;;;3.90;2.50;;;13.30;87.70;;;;;;4993108;28;20191;-74
2023/10/30 02:56:08;;;;;;;4.13;2.20;;;13.30;87.70;;;;;;4988046;28;20469;-74
2023/10/30 02:58:34;;;;;;;5.03;3.40;;;13.30;87.80;;;;;;4990058;28;20198;-74
2023/10/30 03:01:00;;;;;;;4.80;2.50;;;13.30;87.70;;;;;;4989376;28;20205;-74
2023/10/30 03:03:26;;;;;;;3.93;2.57;;;13.20;87.70;;;;;;4991230;28;20195;-74
2023/10/30 03:05:51;;;;;;;3.13;2.00;;;13.20;88.00;;;;;;4989885;28;20468;-73
2023/10/30 03:08:17;;;;;;;6.53;2.60;;;13.20;88.00;;;;;;4991965;28;20186;-74
2023/10/30 03:10:43;;;;;;;3.43;2.17;;;13.20;87.70;;;;;;4986694;28;20187;-74
2023/10/30 03:13:09;;;;;;;3.17;2.20;;;13.20;87.60;;;;;;4990354;28;20186;-73
2023/10/30 03:15:35;;;;;;;4.33;2.40;;;13.20;87.60;;;;;;4988393;28;20210;-73
2023/10/30 03:18:01;;;;;;;5.27;2.60;;;13.30;87.70;;;;;;4986387;28;20857;-74
2023/10/30 03:20:27;;;;;;;5.43;2.93;;;13.30;87.40;;;;;;4990409;28;20430;-74
2023/10/30 03:22:52;;;;;;;4.23;2.30;;;13.30;87.60;;;;;;4989371;28;20966;-75
2023/10/30 03:25:18;;;;;;;4.43;2.50;;;13.30;87.30;;;;;;4988347;28;20197;-73
2023/10/30 03:27:44;;;;;;;3.50;2.20;;;13.30;87.00;;;;;;4986924;28;20210;-73
2023/10/30 03:30:10;;;;;;;5.27;1.73;;;13.30;87.00;;;;;;4990111;28;20245;-74
2023/10/30 03:32:36;;;;;;;3.40;2.20;;;13.30;87.00;;;;;;4988369;28;20191;-73
2023/10/30 03:35:02;;;;;;;2.60;1.77;;;13.30;87.00;;;;;;4989893;28;20974;-74
2023/10/30 03:37:27;;;;;;;2.50;1.97;;;13.30;87.00;;;;;;4987112;28;20456;-75
2023/10/30 03:39:53;;;;;;;3.90;1.97;;;13.30;87.00;;;;;;4990524;28;20187;-72
2023/10/30 03:42:19;;;;;;;5.53;2.17;;;13.30;86.90;;;;;;4992070;28;20658;-73
2023/10/30 03:44:45;;;;;;;3.47;2.10;;;13.20;86.90;;;;;;4992700;28;20253;-74
2023/10/30 03:47:11;;;;;;;2.87;2.10;;;13.10;86.90;;;;;;4986865;28;20477;-74
2023/10/30 03:49:37;;;;;;;6.03;2.53;;;13.10;87.00;;;;;;4990510;28;20516;-76
2023/10/30 03:52:02;;;;;;;3.07;1.90;;;13.00;87.10;;;;;;4989222;28;20241;-74
2023/10/30 03:54:28;;;;;;;2.50;1.83;;;13.00;87.30;;;;;;4987399;28;20187;-75
2023/10/30 03:56:53;;;;;;;2.23;1.63;;;13.10;87.40;;;;;;4984409;28;20604;-72
2023/10/30 03:59:20;;;;;;;3.40;2.00;;;13.10;87.30;;;;;;4992896;28;20186;-73
2023/10/30 04:01:46;;;;;;;3.40;1.73;;;13.00;87.30;;;;;;4987984;28;20320;-72
2023/10/30 04:04:11;;;;;;;2.63;1.60;;;13.00;87.60;;;;;;4993464;28;20525;-73
2023/10/30 04:06:38;;;;;;;3.47;1.90;;;13.00;87.40;;;;;;4984694;28;20269;-73
2023/10/30 04:09:07;;;;;;;3.53;2.27;;;13.00;87.40;;;;;;4993079;28;20186;-72
2023/10/30 04:11:33;;;;;;;5.97;2.47;;;13.00;87.60;;;;;;4993427;28;20487;-73
2023/10/30 04:13:59;;;;;;;5.87;2.30;;;13.00;87.40;;;;;;4991492;28;20417;-72
2023/10/30 04:16:25;;;;;;;4.20;2.07;;;13.00;87.40;;;;;;4991166;28;20469;-73
2023/10/30 04:18:50;;;;;;;3.23;2.10;;;13.00;87.40;;;;;;4993059;28;20437;-73
2023/10/30 04:21:16;;;;;;;4.37;2.07;;;13.00;87.30;;;;;;4994317;28;20179;-74
2023/10/30 04:23:43;;;;;;;2.77;2.10;;;13.00;87.10;;;;;;4991310;28;20595;-73
2023/10/30 04:26:09;;;;;;;5.30;2.57;;;13.00;87.10;;;;;;4991283;28;20461;-74
2023/10/30 04:28:35;;;;;;;2.27;1.60;;;13.00;87.10;;;;;;4995815;28;20504;-73
2023/10/30 04:31:01;;;;;;;3.23;1.87;;;13.00;87.00;;;;;;4995949;28;20523;-73
2023/10/30 04:33:27;;;;;;;1.90;1.73;;;13.00;86.90;;;;;;4994429;28;20426;-74
2023/10/30 04:35:53;;;;;;;3.63;2.10;;;13.00;86.80;;;;;;4989123;28;20301;-74
2023/10/30 04:38:20;;;;;;;3.47;1.70;;;12.90;86.80;;;;;;4992696;28;20441;-74
2023/10/30 04:40:46;;;;;;;2.67;1.67;;;12.80;86.90;;;;;;4993617;28;20973;-74
2023/10/30 04:43:12;;;;;;;3.73;1.93;;;12.80;86.90;;;;;;4993319;28;20425;-75
2023/10/30 04:45:37;;;;;;;2.87;1.63;;;12.70;87.00;;;;;;4989847;28;20214;-75
2023/10/30 04:48:03;;;;;;;3.07;2.07;;;12.70;87.10;;;;;;4992361;28;20214;-73
2023/10/30 04:50:29;;;;;;;2.10;1.60;;;12.80;87.00;;;;;;4994954;28;20194;-74
2023/10/30 04:52:54;;;;;;;2.80;2.10;;;12.80;86.80;;;;;;4993031;28;20589;-73
2023/10/30 04:55:20;;;;;;;4.30;2.33;;;12.70;86.50;;;;;;4987496;28;20618;-73
2023/10/30 04:57:45;;;;;;;4.10;2.80;;;12.70;87.00;;;;;;4991142;28;20241;-75
2023/10/30 05:00:12;;;;;;;3.40;2.20;;;12.70;87.10;;;;;;4993454;28;20206;-74
2023/10/30 05:02:38;;;;;;;3.73;2.10;;;12.60;87.60;;;;;;4987954;28;20222;-74
2023/10/30 05:05:03;;;;;;;3.97;2.30;;;12.60;87.80;;;;;;4999785;28;20420;-75
2023/10/30 05:07:29;;;;;;;4.47;2.50;;;12.70;88.00;;;;;;4989964;28;20219;-75
2023/10/30 05:09:55;;;;;;;3.77;2.40;;;12.70;88.00;;;;;;4993285;28;20421;-73
2023/10/30 05:12:20;;;;;;;5.20;2.60;;;12.60;88.10;;;;;;4993788;28;20187;-75
2023/10/30 05:14:46;;;;;;;2.80;2.13;;;12.70;88.10;;;;;;4994924;28;20232;-74
2023/10/30 05:17:12;;;;;;;3.37;2.10;;;12.80;88.00;;;;;;4992140;28;20353;-75
2023/10/30 05:19:38;;;;;;;2.80;2.40;;;12.70;87.40;;;;;;4994493;28;20241;-74
2023/10/30 05:22:05;;;;;;;3.33;2.40;;;12.60;87.60;;;;;;4992942;28;20865;-75
2023/10/30 05:24:30;;;;;;;5.57;3.37;;;12.60;87.60;;;;;;4993108;28;20555;-74
2023/10/30 05:26:56;;;;;;;4.20;2.60;;;12.50;87.70;;;;;;4988420;28;20472;-73
2023/10/30 05:29:22;;;;;;;3.63;2.37;;;12.40;88.00;;;;;;4992261;28;20241;-74
2023/10/30 05:31:47;;;;;;;4.30;2.60;;;12.40;88.30;;;;;;4992572;28;20265;-75
2023/10/30 05:34:13;;;;;;;4.30;2.67;;;12.40;88.40;;;;;;4990199;28;20258;-75
2023/10/30 05:36:39;;;;;;;4.17;2.30;;;12.40;88.40;;;;;;4988696;28;20214;-75
2023/10/30 05:39:05;;;;;;;4.53;2.90;;;12.40;88.40;;;;;;4991698;28;20202;-74
2023/10/30 05:41:30;;;;;;;3.30;2.70;;;12.30;88.40;;;;;;4992205;28;20648;-75
2023/10/30 05:43:56;;;;;;;3.90;2.50;;;12.30;88.60;;;;;;4992544;28;20192;-75
2023/10/30 05:46:21;;;;;;;3.53;2.83;;;12.40;88.60;;;;;;4989936;28;21102;-74
2023/10/30 05:48:47;;;;;;;3.90;3.20;;;12.40;88.40;;;;;;4989360;28;20218;-74
2023/10/30 05:51:12;;;;;;;5.20;3.57;;;12.30;88.30;;;;;;4992370;28;20261;-73
2023/10/30 05:53:38;;;;;;;5.10;3.30;;;12.30;88.10;;;;;;4992069;28;20182;-74
2023/10/30 05:56:04;;;;;;;8.57;4.27;;;12.20;88.10;;;;;;4991373;28;20205;-74
2023/10/30 05:58:29;;;;;;;7.20;4.23;;;12.20;88.40;;;;;;4992313;28;20190;-75
2023/10/30 06:00:55;;;;;;;7.23;4.67;;;12.20;88.40;;;;;;4986793;28;20317;-73
2023/10/30 06:03:20;;;;;;;8.70;4.97;;;12.10;88.40;;;;;;4996215;28;20264;-74
2023/10/30 06:05:46;;;;;;;6.80;4.40;;;12.10;88.60;;;;;;4992526;28;20199;-75
2023/10/30 06:08:12;;;;;;;7.20;4.80;;;12.00;88.60;;;;;;4991748;28;20525;-75
2023/10/30 06:10:38;;;;;;;11.00;5.07;;;12.00;88.70;;;;;;4992185;28;20620;-74
2023/10/30 06:13:07;;;;;;;6.77;5.00;;;12.00;88.70;;;;;;4991001;28;20182;-73
2023/10/30 06:15:33;;;;;;;8.13;4.90;;;12.00;89.00;;;;;;4989501;28;20478;-74
2023/10/30 06:18:01;;;;;;;14.70;5.20;;;12.00;89.00;;;;;;4992354;28;20448;-74
2023/10/30 06:20:27;;;;;;;7.60;5.90;;;12.00;89.00;;;;;;4990823;28;20422;-74
2023/10/30 06:22:53;;;;;;;10.50;5.50;;;12.00;88.90;;;;;;4990000;28;21327;-73
2023/10/30 06:25:18;;;;;;;9.40;5.07;;;12.00;89.00;;;;;;4990227;28;20198;-76
2023/10/30 06:27:44;;;;;;;8.57;5.00;;;11.90;89.00;;;;;;4991813;28;20705;-73
2023/10/30 06:30:13;;;;;;;10.80;5.50;;;12.00;89.20;;;;;;4987001;28;20189;-73
2023/10/30 06:32:38;;;;;;;11.60;5.90;;;12.00;89.20;;;;;;4985699;28;20202;-75
2023/10/30 06:35:07;;;;;;;19.10;7.27;;;12.10;88.90;;;;;;4989967;28;20426;-75
2023/10/30 06:37:33;;;;;;;15.63;8.30;;;12.10;88.70;;;;;;4992469;28;20202;-73
2023/10/30 06:39:58;;;;;;;12.43;6.90;;;12.10;88.70;;;;;;4991280;28;20425;-73
2023/10/30 06:42:24;;;;;;;10.90;5.53;;;12.10;88.40;;;;;;4992783;28;20175;-74
2023/10/30 06:44:51;;;;;;;10.40;6.40;;;12.20;88.00;;;;;;4992676;28;20214;-74
2023/10/30 06:47:17;;;;;;;8.67;5.63;;;12.10;87.80;;;;;;4985553;28;20212;-73
2023/10/30 06:49:43;;;;;;;7.60;5.30;;;12.10;87.70;;;;;;4991795;28;20438;-75
2023/10/30 06:52:09;;;;;;;9.37;5.50;;;12.20;87.70;;;;;;4989774;28;20426;-75
2023/10/30 06:54:34;;;;;;;11.80;6.13;;;12.10;87.60;;;;;;4990382;28;20186;-74
2023/10/30 06:57:00;;;;;;;8.80;5.00;;;12.10;87.70;;;;;;4987213;28;20206;-74
2023/10/30 06:59:27;;;;;;;7.90;5.50;;;12.10;87.80;;;;;;4990118;28;20202;-75
2023/10/30 07:01:52;;;;;;;8.60;5.60;;;12.20;88.00;;;;;;4992582;28;20201;-76
2023/10/30 07:04:20;;;;;;;8.33;5.23;;;12.20;88.00;;;;;;4987077;28;20442;-75
2023/10/30 07:06:46;;;;;;;18.30;6.77;;;12.20;88.00;;;;;;4986878;28;20617;-75
2023/10/30 07:09:12;;;;;;;9.87;5.70;;;12.20;87.80;;;;;;4989587;28;20507;-74
2023/10/30 07:11:39;;;;;;;15.73;6.10;;;12.30;87.60;;;;;;4990929;28;20492;-77
2023/10/30 07:14:05;;;;;;;10.23;6.47;;;12.30;87.00;;;;;;4993639;28;21369;-77
2023/10/30 07:16:32;;;;;;;10.73;7.17;;;12.30;86.90;;;;;;4988387;28;20462;-77
2023/10/30 07:18:58;;;;;;;12.00;7.10;;;12.20;87.00;;;;;;4990291;28;20210;-77
2023/10/30 07:21:28;;;;;;;11.63;6.90;;;12.20;87.00;;;;;;4991215;28;20428;-79
2023/10/30 07:23:54;;;;;;;11.03;7.90;;;12.10;87.10;;;;;;4983387;28;20425;-77
2023/10/30 07:26:21;;;;;;;12.07;6.67;;;12.20;87.30;;;;;;4991010;28;20505;-78
2023/10/30 07:28:48;;;;;;;11.07;7.53;;;12.10;87.30;;;;;;4993423;28;20429;-77
2023/10/30 07:31:18;;;;;;;12.10;7.20;;;12.10;87.30;;;;;;4997070;28;20433;-77
2023/10/30 07:33:44;;;;;;;9.60;6.67;;;12.10;87.40;;;;;;4997969;28;20424;-77
2023/10/30 07:36:09;;;;;;;11.77;7.00;;;12.20;87.40;;;;;;4992106;28;20460;-77
2023/10/30 07:38:36;;;;;;;9.47;6.40;;;12.20;87.40;;;;;;4993854;28;20186;-79
2023/10/30 07:41:03;;;;;;;15.30;7.13;;;12.20;87.70;;;;;;4999360;28;20621;-76
2023/10/30 07:43:29;;;;;;;12.10;6.87;;;12.30;87.70;;;;;;4998415;28;20421;-77
2023/10/30 07:45:55;;;;;;;11.13;7.80;;;12.30;87.60;;;;;;4995295;28;20491;-77
2023/10/30 07:48:23;;;;;;;12.10;6.97;;;12.30;87.60;;;;;;4996734;28;20449;-77
2023/10/30 07:50:50;;;;;;;10.40;6.50;;;12.40;87.70;;;;;;4995201;28;20663;-76
2023/10/30 07:53:15;;;;;;;13.67;7.60;;;12.40;87.30;;;;;;4998296;28;20433;-78
2023/10/30 07:55:41;;;;;;;11.83;7.47;;;12.50;86.80;;;;;;4989786;28;20482;-76
2023/10/30 07:58:07;;;;;;;14.07;7.30;;;12.40;86.60;;;;;;4995997;28;20262;-75
2023/10/30 08:00:33;;;;;;;17.10;8.37;;;12.40;86.80;;;;;;4994705;28;20436;-74
2023/10/30 08:03:03;;;;;;;15.03;8.33;;;12.30;86.90;;;;;;4995759;28;20721;-75
2023/10/30 08:05:30;;;;;;;18.10;9.50;;;12.30;87.10;;;;;;4990450;28;20472;-76
2023/10/30 08:07:56;;;;;;;13.80;8.00;;;12.30;87.40;;;;;;4995305;28;20588;-75
2023/10/30 08:10:22;;;;;;;13.60;7.70;;;12.30;87.60;;;;;;4994502;28;20531;-77
2023/10/30 08:12:47;;;;;;;15.60;9.10;;;12.40;87.70;;;;;;4992900;28;20652;-77
2023/10/30 08:15:13;;;;;;;13.37;7.97;;;12.50;87.70;;;;;;4991766;28;20182;-76
2023/10/30 08:17:38;;;;;;;10.70;7.60;;;12.60;87.60;;;;;;4990513;28;20334;-76
2023/10/30 08:20:04;;;;;;;12.90;7.80;;;12.60;87.40;;;;;;4990274;28;20182;-75
2023/10/30 08:22:32;;;;;;;14.97;8.30;;;12.70;87.10;;;;;;4990938;28;20190;-75
2023/10/30 08:24:58;;;;;;;11.60;7.40;;;12.80;87.10;;;;;;4992462;28;21034;-76
2023/10/30 08:27:24;;;;;;;13.80;7.50;;;12.90;86.90;;;;;;4989342;28;20564;-76
2023/10/30 08:29:50;;;;;;;11.97;8.17;;;13.00;86.60;;;;;;4989817;28;20516;-76
2023/10/30 08:32:15;;;;;;;12.03;7.37;;;12.90;86.50;;;;;;4990504;28;20695;-74
2023/10/30 08:34:41;;;;;;;9.90;6.30;;;13.00;86.50;;;;;;4992744;28;20187;-76
2023/10/30 08:37:06;;;;;;;9.30;6.07;;;13.10;86.20;;;;;;4989626;28;20264;-75
2023/10/30 08:39:32;;;;;;;11.70;6.97;;;13.20;85.70;;;;;;4986001;28;20202;-75
2023/10/30 08:41:58;;;;;;;8.53;6.03;;;13.30;85.30;;;;;;4993865;28;20182;-76
2023/10/30 08:44:27;;;;;;;11.33;6.57;;;13.30;85.00;;;;;;4993967;28;20201;-75
2023/10/30 08:46:53;;;;;;;11.10;6.10;;;13.30;84.90;;;;;;4991004;28;20218;-76
2023/10/30 08:49:19;;;;;;;9.97;5.97;;;13.40;84.70;;;;;;4993986;28;20449;-79
2023/10/30 08:51:45;;;;;;;7.43;5.43;;;13.60;84.40;;;;;;4995359;28;20427;-75
2023/10/30 08:54:10;;;;;;;11.20;5.90;;;13.60;84.30;;;;;;4991930;28;20433;-76
2023/10/30 08:56:36;;;;;;;10.10;5.30;;;13.70;84.00;;;;;;4989223;28;20207;-77
2023/10/30 08:59:03;;;;;;;6.10;4.70;;;13.80;83.80;;;;;;4993177;28;20270;-74
2023/10/30 09:01:31;;;;;;;9.10;5.13;;;13.90;83.60;;;;;;4994305;28;20195;-75
2023/10/30 09:03:57;;;;;;;9.80;5.17;;;14.10;83.00;;;;;;4986406;28;20427;-76
2023/10/30 09:06:23;;;;;;;8.70;5.03;;;14.10;82.80;;;;;;4991394;28;20474;-75
2023/10/30 09:08:48;;;;;;;7.27;5.13;;;14.20;82.40;;;;;;4992158;28;20583;-76
2023/10/30 09:11:14;;;;;;;6.90;4.57;;;14.30;82.20;;;;;;4993785;28;20185;-75
2023/10/30 09:13:39;;;;;;;9.47;6.20;;;14.30;82.10;;;;;;4992776;28;20267;-74
2023/10/30 09:16:05;;;;;;;5.83;4.53;;;14.40;81.80;;;;;;4989763;28;20206;-74
2023/10/30 09:18:31;;;;;;;8.93;5.80;;;14.50;81.20;;;;;;4992596;28;20184;-75
2023/10/30 09:20:56;;;;;;;9.63;4.90;;;14.50;81.40;;;;;;4992880;28;20435;-74
2023/10/30 09:23:23;;;;;;;8.37;4.97;;;14.50;81.10;;;;;;4991848;28;20188;-76
2023/10/30 09:25:48;;;;;;;9.30;5.00;;;14.60;80.80;;;;;;4989865;28;20215;-75
2023/10/30 09:28:14;;;;;;;5.90;4.20;;;14.60;80.50;;;;;;4992878;28;21050;-74
2023/10/30 09:30:40;;;;;;;6.00;3.93;;;14.70;80.00;;;;;;4993802;28;20187;-76
2023/10/30 09:33:07;;;;;;;7.37;4.30;;;14.80;79.90;;;;;;4998592;28;20280;-74
2023/10/30 09:35:33;;;;;;;7.13;4.77;;;14.90;79.70;;;;;;4994071;28;20470;-75
2023/10/30 09:37:59;;;;;;;6.50;4.10;;;14.90;79.50;;;;;;4993102;28;20429;-75
2023/10/30 09:40:28;;;;;;;8.70;5.00;;;15.10;79.20;;;;;;4992076;28;20433;-75
2023/10/30 09:42:54;;;;;;;7.57;4.50;;;15.10;79.00;;;;;;4991579;28;20198;-75
2023/10/30 09:45:25;;;;;;;5.73;4.20;;;15.20;78.90;;;;;;4989434;28;20807;-76
2023/10/30 09:47:55;;;;;;;7.03;4.00;;;15.30;78.70;;;;;;4991357;28;20558;-76
2023/10/30 09:50:21;;;;;;;5.90;4.00;;;15.50;78.30;;;;;;4991215;28;20445;-75
2023/10/30 09:52:49;;;;;;;6.43;4.40;;;15.60;78.30;;;;;;4992950;28;20498;-75
2023/10/30 09:55:24;;;;;;;5.07;4.20;;;15.70;78.00;;;;;;4989568;28;20429;-75
2023/10/30 09:57:51;;;;;;;4.63;3.53;;;15.80;77.40;;;;;;4994262;28;20934;-74
2023/10/30 10:00:18;;;;;;;8.53;4.43;;;15.90;77.10;;;;;;4991168;28;20418;-76
2023/10/30 10:02:44;;;;;;;5.90;3.70;;;15.90;76.80;;;;;;4991554;28;20460;-75
2023/10/30 10:05:13;;;;;;;9.60;5.70;;;15.90;76.20;;;;;;4991376;28;20471;-76
2023/10/30 10:07:40;;;;;;;6.47;4.57;;;16.00;76.20;;;;;;4988983;28;20559;-77
2023/10/30 10:10:08;;;;;;;5.00;3.70;;;16.10;76.40;;;;;;4990996;28;20588;-74
2023/10/30 10:12:34;;;;;;;5.40;3.90;;;16.20;76.10;;;;;;4985313;28;20810;-75
2023/10/30 10:15:06;;;;;;;4.20;3.27;;;16.30;75.90;;;;;;4991653;28;20439;-75
2023/10/30 10:17:31;;;;;;;8.70;4.40;;;16.40;75.50;;;;;;4989378;28;20907;-76
2023/10/30 10:20:03;;;;;;;7.47;4.40;;;16.30;74.30;;;;;;4990797;28;20445;-78
2023/10/30 10:22:31;;;;;;;6.47;4.10;;;16.50;74.90;;;;;;4984722;28;20194;-75
2023/10/30 10:24:57;;;;;;;11.70;3.80;;;16.80;74.30;;;;;;4989578;28;20922;-77
2023/10/30 10:27:26;;;;;;;5.67;3.53;;;17.10;73.90;;;;;;4987506;28;20476;-75
2023/10/30 10:29:55;;;;;;;6.37;3.80;;;17.30;73.20;;;;;;4990238;28;20281;-74
2023/10/30 10:32:25;;;;;;;5.83;3.60;;;17.40;71.80;;;;;;4986762;28;20419;-76
2023/10/30 10:34:51;;;;;;;6.33;3.40;;;17.60;71.10;;;;;;4989624;28;20939;-75
2023/10/30 10:37:18;;;;;;;6.83;3.47;;;17.60;70.70;;;;;;4986771;28;20454;-74
2023/10/30 10:39:51;;;;;;;4.63;3.40;;;17.50;70.70;;;;;;4985073;28;20411;-75
2023/10/30 10:42:21;;;;;;;4.57;2.80;;;17.50;70.70;;;;;;4992112;28;20457;-74
2023/10/30 10:44:49;;;;;;;5.80;3.70;;;17.60;70.70;;;;;;4990124;28;20963;-74
2023/10/30 10:47:15;;;;;;;5.00;3.00;;;17.60;70.80;;;;;;4986486;28;21013;-75
2023/10/30 10:49:41;;;;;;;4.77;3.00;;;17.60;71.00;;;;;;4990879;28;20427;-76
2023/10/30 10:52:13;;;;;;;3.80;2.53;;;17.60;70.70;;;;;;4990513;28;20789;-75
2023/10/30 10:55:04;;;;;;;3.70;2.80;;;17.60;70.80;;;;;;4990080;28;20789;-76
2023/10/30 10:57:41;;;;;;;3.70;2.30;;;17.40;70.50;;;;;;4988094;28;20491;-76
2023/10/30 11:00:09;;;;;;;3.87;2.33;;;17.30;70.50;;;;;;4990511;28;20461;-76
2023/10/30 11:02:38;;;;;;;7.90;3.70;;;17.20;70.80;;;;;;4990562;28;20958;-76
2023/10/30 11:05:05;;;;;;;7.53;3.10;;;17.10;71.30;;;;;;4990637;28;20436;-75
2023/10/30 11:07:38;;;;;;;6.13;3.00;;;17.00;71.60;;;;;;4989646;28;20488;-76
2023/10/30 11:10:12;;;;;;;4.33;2.83;;;17.00;72.00;;;;;;4988586;28;20568;-76
2023/10/30 11:12:57;;;;;;;3.87;2.83;;;17.00;72.00;;;;;;4992867;28;21007;-76
2023/10/30 11:15:30;;;;;;;4.13;2.47;;;17.10;72.40;;;;;;4993054;28;22034;-77
2023/10/30 11:18:21;;;;;;;6.00;2.87;;;17.20;72.00;;;;;;4996471;28;20515;-76
2023/10/30 11:20:52;;;;;;;7.67;2.97;;;17.20;71.60;;;;;;4996094;28;20430;-74
2023/10/30 11:23:44;;;;;;;5.57;2.30;;;17.10;71.60;;;;;;4989579;28;20943;-74
2023/10/30 11:26:30;;;;;;;5.97;2.53;;;17.10;71.60;;;;;;4990292;28;20540;-75
2023/10/30 11:29:19;;;;;;;4.40;2.17;;;17.10;71.30;;;;;;4985836;28;20425;-74
2023/10/30 11:31:52;;;;;;;4.70;2.40;;;17.10;71.40;;;;;;4962984;28;20437;-75
2023/10/30 11:34:17;;;;;;;3.10;1.70;;;17.10;70.20;;;;;;4994062;28;20428;-75
2023/10/30 11:36:46;;;;;;;5.13;1.70;;;17.10;70.10;;;;;;4988062;28;20465;-77
2023/10/30 11:39:20;;;;;;;3.40;1.87;;;17.00;70.20;;;;;;4993354;28;20182;-77
2023/10/30 11:41:50;;;;;;;5.93;2.43;;;16.90;70.10;;;;;;4994084;28;20468;-76
2023/10/30 11:44:17;;;;;;;2.20;1.60;;;16.90;69.80;;;;;;4988498;28;20397;-74
2023/10/30 11:46:49;;;;;;;1.63;1.37;;;16.80;69.70;;;;;;4988662;28;20488;-75
2023/10/30 11:49:15;;;;;;;3.07;1.40;;;16.80;69.80;;;;;;4993282;28;20422;-77
2023/10/30 11:51:42;;;;;;;2.97;1.77;;;16.80;70.10;;;;;;4993969;28;20469;-75
2023/10/30 11:54:08;;;;;;;2.73;1.50;;;16.80;70.20;;;;;;4994737;28;20440;-78
2023/10/30 11:56:34;;;;;;;2.40;1.70;;;16.80;69.80;;;;;;4991985;28;20572;-75
2023/10/30 11:59:00;;;;;;;1.73;1.20;;;16.70;70.10;;;;;;4995858;28;20405;-74
2023/10/30 12:01:25;;;;;;;2.20;1.50;;;16.70;70.10;;;;;;4997093;28;20303;-75
2023/10/30 12:03:51;;;;;;;2.47;1.70;;;16.70;70.10;;;;;;4994613;28;20880;-76
2023/10/30 12:06:17;;;;;;;2.20;1.73;;;16.70;70.10;;;;;;4995152;28;20237;-74
2023/10/30 12:08:42;;;;;;;3.23;1.47;;;16.70;69.90;;;;;;4997944;28;20189;-74
2023/10/30 12:11:09;;;;;;;1.67;1.30;;;16.70;69.90;;;;;;4999939;28;20178;-74
2023/10/30 12:13:35;;;;;;;4.10;2.20;;;16.70;69.90;;;;;;4994338;28;20198;-75
2023/10/30 12:16:00;;;;;;;4.60;2.00;;;16.80;70.10;;;;;;4990283;28;20459;-74
2023/10/30 12:18:26;;;;;;;3.53;1.90;;;16.80;69.80;;;;;;4992454;28;20190;-75
2023/10/30 12:20:52;;;;;;;3.53;2.20;;;16.90;69.10;;;;;;4993019;28;20179;-76
2023/10/30 12:23:18;;;;;;;3.83;2.20;;;17.00;68.90;;;;;;4992696;28;20187;-75
2023/10/30 12:25:44;;;;;;;4.17;2.30;;;17.10;68.60;;;;;;4985170;28;20991;-75
2023/10/30 12:28:10;;;;;;;2.53;1.70;;;17.20;68.00;;;;;;4988657;28;20210;-77
2023/10/30 12:30:38;;;;;;;3.80;1.90;;;17.30;67.70;;;;;;4992811;28;20730;-78
2023/10/30 12:33:04;;;;;;;2.70;1.87;;;17.30;67.60;;;;;;4989008;28;20274;-75
2023/10/30 12:35:30;;;;;;;3.60;2.07;;;17.40;67.50;;;;;;4989840;28;20823;-76
2023/10/30 12:37:56;;;;;;;3.47;2.20;;;17.50;67.00;;;;;;4988188;28;20425;-75
2023/10/30 12:40:21;;;;;;;6.20;1.70;;;17.50;67.20;;;;;;4988084;28;20575;-75
2023/10/30 12:42:48;;;;;;;3.27;1.60;;;17.50;66.70;;;;;;4993101;28;20566;-75